General Juan N Alvarez International Airport
MMAA : now visible

Airfield :











YOU CAN JOIN US ON...

 
LOGIN :

Register | Disclaimer

   EN    FR    IT 

 









Legend :    VFR   Marginal VFR   IFR   Intensive IFR   Very Intensive IFR
Visi :
Ceiling :
>= 8 km
>= 3000ft
5 to 8 km
1000 to 3000 ft
1500m to 5 km
500 to 1000 ft
800 to 1500m
200 to 500 ft
< 800m
< 200 ft
Symbols :   Thunderstorms  Fog  Heavy snow  Heavy precipitations  Wind > 20 kt







- Airport Elevation : 16 ft
- IATA code : ACA


MMAA - General Juan N Alvarez International

CURRENT METAR :
  • 181843Z 23003KT 8SM FEW100 SCT300 32/25 A2985 RMK 8/032

EXPIRED METARs :
  • 181748Z 26004KT 8SM FEW100 SCT300 32/23 A2987 RMK SLP108 57015 960 8/032
  • 181647Z 25003KT 8SM FEW120 SCT300 31/24 A2989 RMK 8/032

TAF TAF MMAA
Valid from the 18 at 18:00 until the 20 at 00:00 UTC


181713Z 1818/1924 25005KT P6SM SCT120 TX32/1821Z TN26/1912Z
BECMG 1820/1821 25012KT SCT015 SCT100
FM190100 29005KT P6SM SCT015 BKN100
FM190600 34005KT 6SM HZ SCT015CB BKN100
PROB40 1907/1911 5SM TSRA BKN015CB
FM191300 12005KT 6SM HZ SCT015 BKN100
FM191800 17005KT 6SM HZ SCT015 SCT100
BECMG 1920/1921 17012KT SCT015CB BKN100
MMFR FIR / North America



MET'MAP, your aeronautical weather chart ! - Copyright ORBIFLY December 2007 - Disclaimer

ORBIFLY MET'MAP TEAM :

Programming & Development : Alexandra Zaïnal
Concept & Development : Baudouin d'Aumeries
Co-Development & Prog : Marc-Olivier Méhu
Technical & hardware support : Manuel Goepfert

Contact : metmap@orbifly.com




SOURCES & CREDITS :

   NOAA       Earth
Advisory